Terminal Aerodrome Forecast
Issued by NWS

Home | Current Version | Previous Version | Text Only | Print | Product List | Glossary Off
Versions: 1 2 3 4 5 6 7 8 9 10 11 12

978
FTUS45 KGGW 171131
TAFSDY
TAF
KSDY 171131Z 1712/1812 20014KT P6SM FEW200
     FM172100 22010KT P6SM FEW045
     FM180400 22008KT P6SM FEW140=

USA.gov is the U.S. government's official web portal to all federal, state and local government web resources and services.